Time;durP1;ratioP1;P1;durP2;ratioP2;P2;SDS_P1;SDS_P2;PMS_P1;PMS_P2;Temp;Humidity;BMP_temperature;BMP_pressure;BME280_temperature;BME280_humidity;BME280_pressure;Samples;Min_cycle;Max_cycle;Signal;HPM_P1;HPM_P2
2021/08/23 00:00:22;;;;;;;6.55;4.55;;;;;;;15.77;100.00;101025.50;4983539;28;20038;-84
2021/08/23 00:02:49;;;;;;;7.43;4.70;;;;;;;15.79;100.00;101022.78;4974209;28;20057;-85
2021/08/23 00:05:17;;;;;;;7.10;4.97;;;;;;;15.73;100.00;101028.34;4964664;28;20050;-85
2021/08/23 00:07:46;;;;;;;6.93;4.28;;;;;;;15.72;100.00;101026.59;4995578;28;20092;-85
2021/08/23 00:10:17;;;;;;;5.90;4.00;;;;;;;15.67;100.00;101026.75;4980290;28;20073;-85
2021/08/23 00:12:53;;;;;;;8.00;5.15;;;;;;;15.71;100.00;101023.06;4982264;28;20049;-86
2021/08/23 00:15:21;;;;;;;9.10;4.85;;;;;;;15.70;100.00;101020.44;4967500;28;20044;-86
2021/08/23 00:17:48;;;;;;;9.27;4.57;;;;;;;15.71;100.00;101017.72;4974671;28;20125;-86
2021/08/23 00:20:17;;;;;;;6.43;4.65;;;;;;;15.65;100.00;101025.09;4964483;28;20384;-86
2021/08/23 00:22:47;;;;;;;6.93;4.85;;;;;;;15.66;100.00;101019.69;4967955;28;20038;-86
2021/08/23 00:25:17;;;;;;;7.55;4.93;;;;;;;15.62;100.00;101023.38;4961874;28;20121;-85
2021/08/23 00:27:52;;;;;;;8.40;4.32;;;;;;;15.70;100.00;101020.44;4988503;28;20129;-85
2021/08/23 00:30:22;;;;;;;6.50;4.38;;;;;;;15.66;100.00;101019.69;4986844;28;20522;-86
2021/08/23 00:32:49;;;;;;;8.07;5.03;;;;;;;15.63;100.00;101021.59;5004658;28;20058;-86
2021/08/23 00:35:16;;;;;;;8.23;4.32;;;;;;;15.64;100.00;101026.88;4980466;28;20073;-86
2021/08/23 00:37:43;;;;;;;5.47;4.45;;;;;;;15.73;100.00;101031.00;4985242;28;20046;-86
2021/08/23 00:40:10;;;;;;;8.35;4.50;;;;;;;15.68;100.00;101028.50;4995067;28;20046;-86
2021/08/23 00:42:37;;;;;;;7.45;4.22;;;;;;;15.64;100.00;101029.56;4970420;28;20450;-86
2021/08/23 00:45:08;;;;;;;7.55;3.92;;;;;;;15.67;100.00;101031.22;4960873;28;20048;-86
2021/08/23 00:47:35;;;;;;;7.05;4.53;;;;;;;15.70;100.00;101028.44;4992016;28;20419;-86
2021/08/23 00:50:07;;;;;;;7.07;4.47;;;;;;;15.67;100.00;101023.22;4983333;28;20626;-86
2021/08/23 00:52:34;;;;;;;7.35;4.47;;;;;;;15.57;100.00;101030.66;4975975;28;20128;-87
2021/08/23 00:55:02;;;;;;;7.22;4.45;;;;;;;15.62;100.00;101034.03;5011540;28;20073;-86
2021/08/23 00:57:39;;;;;;;8.45;5.00;;;;;;;15.71;100.00;101035.50;4980244;28;20057;-86
2021/08/23 01:00:07;;;;;;;6.05;4.60;;;;;;;15.67;100.00;101026.75;4994791;28;20049;-87
2021/08/23 01:03:17;;;;;;;5.93;4.55;;;;;;;15.55;100.00;101029.81;4973552;28;20050;-85
2021/08/23 01:05:45;;;;;;;6.57;4.72;;;;;;;15.58;100.00;101029.72;4972387;28;20070;-84
2021/08/23 01:08:24;;;;;;;6.68;5.22;;;;;;;15.56;100.00;101039.56;4980056;28;20522;-86
2021/08/23 01:10:52;;;;;;;8.10;5.30;;;;;;;15.57;100.00;101035.09;5004043;28;20046;-87
2021/08/23 01:13:21;;;;;;;7.32;5.00;;;;;;;15.52;100.00;101032.59;4974325;28;20096;-86
2021/08/23 01:15:48;;;;;;;9.10;5.63;;;;;;;15.60;100.00;101029.66;4975445;28;20046;-86
2021/08/23 01:18:14;;;;;;;8.85;6.05;;;;;;;15.66;100.00;101035.69;4995846;28;20393;-86
2021/08/23 01:20:42;;;;;;;9.90;5.68;;;;;;;15.58;100.00;101039.50;4978011;28;20594;-86
2021/08/23 01:23:10;;;;;;;8.18;6.30;;;;;;;15.52;100.00;101037.91;4981269;28;20045;-85
2021/08/23 01:25:38;;;;;;;9.18;6.20;;;;;;;15.54;100.00;101038.72;4993054;28;20085;-86
2021/08/23 01:28:42;;;;;;;10.38;6.25;;;;;;;15.56;100.00;101042.22;5004785;28;20053;-86
2021/08/23 01:31:15;;;;;;;10.98;6.43;;;;;;;15.48;100.00;101037.16;4987006;28;20052;-86
2021/08/23 01:33:43;;;;;;;8.57;6.53;;;;;;;15.46;100.00;101039.00;5005417;28;20064;-86
2021/08/23 01:36:11;;;;;;;12.55;6.50;;;;;;;15.44;100.00;101042.63;4985872;28;20042;-86
2021/08/23 01:38:38;;;;;;;9.02;5.93;;;;;;;15.38;100.00;101041.03;4974516;28;20046;-85
2021/08/23 01:41:07;;;;;;;10.55;6.75;;;;;;;15.36;100.00;101036.72;4977831;28;20046;-86
2021/08/23 01:43:34;;;;;;;8.80;6.63;;;;;;;15.36;100.00;101042.91;4991120;28;20044;-86
2021/08/23 01:46:02;;;;;;;9.90;6.35;;;;;;;15.24;100.00;101040.66;4977391;28;20054;-86
2021/08/23 01:48:32;;;;;;;8.45;6.07;;;;;;;15.31;100.00;101034.22;4971841;28;20177;-85
2021/08/23 01:51:00;;;;;;;9.05;6.25;;;;;;;15.25;100.00;101036.22;4996233;28;20108;-87
2021/08/23 01:53:29;;;;;;;9.07;5.43;;;;;;;15.21;100.00;101041.63;4997112;28;20080;-83
2021/08/23 01:55:56;;;;;;;11.30;5.88;;;;;;;15.22;100.00;101045.19;4976330;28;20058;-84
2021/08/23 01:58:23;;;;;;;7.25;5.35;;;;;;;15.16;100.00;101050.69;4988254;28;20038;-85
2021/08/23 02:00:50;;;;;;;8.85;5.47;;;;;;;15.19;100.00;101051.44;4986224;28;20046;-84
2021/08/23 02:03:17;;;;;;;8.10;5.70;;;;;;;15.19;100.00;101043.47;4993540;28;20112;-86
2021/08/23 02:05:44;;;;;;;8.32;5.35;;;;;;;15.12;100.00;101052.56;5006974;28;20459;-84
2021/08/23 02:08:11;;;;;;;9.05;5.20;;;;;;;15.05;100.00;101045.75;4979310;28;20046;-85
2021/08/23 02:10:38;;;;;;;8.57;5.65;;;;;;;15.11;100.00;101049.97;4992622;28;20384;-86
2021/08/23 02:13:04;;;;;;;9.68;5.82;;;;;;;15.12;100.00;101051.69;4979763;28;20147;-85
2021/08/23 02:15:34;;;;;;;7.40;5.28;;;;;;;15.01;100.00;101052.06;4995677;28;20042;-86
2021/08/23 02:18:01;;;;;;;8.43;5.15;;;;;;;15.05;100.00;101050.16;4981366;28;20066;-85
2021/08/23 02:20:27;;;;;;;5.55;4.60;;;;;;;15.00;100.00;101058.31;4996330;28;20046;-85
2021/08/23 02:22:54;;;;;;;7.80;5.45;;;;;;;15.06;100.00;101051.94;4981279;28;20446;-86
2021/08/23 02:25:23;;;;;;;6.15;5.15;;;;;;;14.96;100.00;101051.31;4978606;28;20491;-85
2021/08/23 02:27:56;;;;;;;8.82;5.90;;;;;;;15.00;100.00;101046.78;4983914;28;20049;-87
2021/08/23 02:30:23;;;;;;;7.40;4.75;;;;;;;15.07;100.00;101049.22;4980058;28;20165;-85
2021/08/23 02:32:50;;;;;;;8.73;4.68;;;;;;;15.06;100.00;101051.94;4978893;28;20038;-86
2021/08/23 02:35:18;;;;;;;6.93;4.88;;;;;;;14.95;100.00;101048.72;4995008;28;20046;-86
2021/08/23 02:37:45;;;;;;;6.32;5.00;;;;;;;14.96;100.00;101048.66;5000076;28;20049;-86
2021/08/23 02:40:12;;;;;;;8.38;5.38;;;;;;;15.01;100.00;101057.38;4977085;28;20060;-86
2021/08/23 02:42:39;;;;;;;6.82;4.40;;;;;;;14.94;100.00;101053.19;5005801;28;20110;-85
2021/08/23 02:45:06;;;;;;;8.00;4.85;;;;;;;14.89;100.00;101050.69;5001115;28;20455;-85
2021/08/23 02:47:36;;;;;;;6.22;4.18;;;;;;;14.87;100.00;101054.28;4980969;28;20049;-84
2021/08/23 02:50:06;;;;;;;6.80;4.15;;;;;;;14.86;100.00;101060.53;4991900;28;20441;-84
2021/08/23 02:52:33;;;;;;;5.45;4.35;;;;;;;14.92;100.00;101063.00;4976449;28;20084;-84
2021/08/23 02:55:00;;;;;;;7.68;4.82;;;;;;;14.92;100.00;101063.00;4975302;28;20671;-85
2021/08/23 02:57:26;;;;;;;7.07;4.28;;;;;;;14.87;100.00;101063.13;4992196;28;20045;-85
2021/08/23 02:59:53;;;;;;;5.95;4.40;;;;;;;14.84;100.00;101065.91;4980254;28;20450;-84
2021/08/23 03:02:20;;;;;;;6.55;4.10;;;;;;;14.80;100.00;101069.59;4994525;28;20042;-85
2021/08/23 03:04:47;;;;;;;5.85;3.92;;;;;;;14.72;100.00;101081.41;5008002;28;20496;-84
2021/08/23 03:07:13;;;;;;;7.15;4.25;;;;;;;14.80;100.00;101074.06;4983244;28;20053;-85
2021/08/23 03:09:43;;;;;;;6.10;4.22;;;;;;;14.76;100.00;101083.03;4986813;28;20503;-85
2021/08/23 03:12:10;;;;;;;6.43;4.05;;;;;;;14.75;100.00;101071.50;4978189;28;20042;-85
2021/08/23 03:14:36;;;;;;;5.43;3.97;;;;;;;14.69;100.00;101078.81;4986223;28;20046;-85
2021/08/23 03:17:03;;;;;;;6.10;4.70;;;;;;;14.62;100.00;101076.31;4972176;28;20133;-85
2021/08/23 03:19:30;;;;;;;4.88;4.07;;;;;;;14.74;100.00;101075.09;4990999;28;20050;-85
2021/08/23 03:21:56;;;;;;;8.50;4.20;;;;;;;14.75;100.00;101070.66;4975056;28;20042;-86
2021/08/23 03:24:23;;;;;;;6.47;3.92;;;;;;;14.71;100.00;101063.66;4982805;28;20053;-84
2021/08/23 03:26:50;;;;;;;7.10;4.95;;;;;;;14.68;100.00;101071.75;4983729;28;20557;-84
2021/08/23 03:29:17;;;;;;;7.75;4.60;;;;;;;14.67;100.00;101072.69;4987583;28;20051;-86
2021/08/23 03:31:44;;;;;;;6.03;4.13;;;;;;;14.70;100.00;101078.75;4972913;28;20108;-85
2021/08/23 03:34:13;;;;;;;5.30;4.00;;;;;;;14.72;100.00;101073.41;4993683;28;20077;-85
2021/08/23 03:36:41;;;;;;;6.10;3.60;;;;;;;14.70;100.00;101076.09;4973267;28;20491;-84
2021/08/23 03:39:09;;;;;;;6.25;4.05;;;;;;;14.59;100.00;101073.78;4984053;28;20114;-85
2021/08/23 03:41:35;;;;;;;6.57;3.83;;;;;;;14.62;100.00;101071.00;4998788;28;20049;-84
2021/08/23 03:44:03;;;;;;;7.05;3.95;;;;;;;14.63;100.00;101071.91;4991557;28;20041;-84
2021/08/23 03:46:32;;;;;;;6.45;3.53;;;;;;;14.62;100.00;101071.00;4971401;28;20144;-85
2021/08/23 03:49:03;;;;;;;6.15;3.60;;;;;;;14.59;100.00;101064.94;4977695;28;20077;-85
2021/08/23 03:51:30;;;;;;;6.63;4.45;;;;;;;14.59;100.00;101070.25;4997332;28;20089;-84
2021/08/23 03:53:57;;;;;;;4.57;3.53;;;;;;;14.55;100.00;101073.94;4980923;28;20431;-84
2021/08/23 03:56:24;;;;;;;5.85;3.92;;;;;;;14.56;100.00;101073.00;4989089;28;20149;-84
2021/08/23 03:58:51;;;;;;;4.97;3.47;;;;;;;14.59;100.00;101080.88;5095134;23;20128;-83
2021/08/23 04:01:17;;;;;;;4.32;3.53;;;;;;;14.53;100.00;101076.59;4993690;28;20042;-84
2021/08/23 04:03:44;;;;;;;6.47;3.95;;;;;;;14.47;100.00;101087.44;4992097;28;20522;-86
2021/08/23 04:06:12;;;;;;;5.85;3.70;;;;;;;14.48;100.00;101090.97;4994172;28;20038;-87
2021/08/23 04:08:39;;;;;;;6.20;3.55;;;;;;;14.50;100.00;101087.34;5000321;28;20120;-86
2021/08/23 04:11:06;;;;;;;4.50;3.55;;;;;;;14.47;100.00;101090.09;4976236;28;20046;-86
2021/08/23 04:13:33;;;;;;;5.45;3.10;;;;;;;14.42;100.00;101099.97;4995047;28;20064;-87
2021/08/23 04:16:00;;;;;;;4.28;3.65;;;;;;;14.37;100.00;101099.22;4993571;28;20056;-86
2021/08/23 04:18:27;;;;;;;6.47;3.58;;;;;;;14.39;100.00;101101.84;5000746;28;20525;-86
2021/08/23 04:20:54;;;;;;;4.88;3.60;;;;;;;14.43;100.00;101100.84;4983212;28;20064;-86
2021/08/23 04:23:21;;;;;;;6.15;4.25;;;;;;;14.39;100.00;101108.03;4973675;28;20637;-87
2021/08/23 04:25:47;;;;;;;5.63;3.38;;;;;;;14.36;100.00;101113.41;5009967;28;20072;-84
2021/08/23 04:28:14;;;;;;;4.20;3.13;;;;;;;14.39;100.00;101115.13;5016352;28;20057;-87
2021/08/23 04:30:41;;;;;;;6.53;3.97;;;;;;;14.42;100.00;101121.22;4976792;28;20045;-87
2021/08/23 04:33:08;;;;;;;5.80;3.78;;;;;;;14.38;100.00;101119.59;4977292;28;20121;-87
2021/08/23 04:35:34;;;;;;;5.45;4.00;;;;;;;14.37;100.00;101121.34;4959201;28;20061;-85
2021/08/23 04:38:01;;;;;;;4.90;4.10;;;;;;;14.34;100.00;101123.22;4973522;28;20041;-87
2021/08/23 04:40:28;;;;;;;7.20;4.38;;;;;;;14.35;100.00;101130.28;5000185;28;20053;-87
2021/08/23 04:42:55;;;;;;;5.93;4.00;;;;;;;14.23;100.00;101128.00;4975922;28;20384;-86
2021/08/23 04:45:22;;;;;;;6.03;4.60;;;;;;;14.23;100.00;101135.97;4984807;28;20056;-83
2021/08/23 04:47:49;;;;;;;7.55;4.90;;;;;;;14.16;100.00;101139.69;4977826;28;20534;-86
2021/08/23 04:50:16;;;;;;;9.20;5.43;;;;;;;14.16;100.00;101131.72;4977412;28;20398;-86
2021/08/23 04:52:44;;;;;;;8.07;4.72;;;;;;;14.18;100.00;101138.72;4977646;28;20038;-86
2021/08/23 04:55:12;;;;;;;7.28;4.95;;;;;;;14.26;100.00;101138.53;5011194;28;20486;-86
2021/08/23 04:57:39;;;;;;;8.13;5.55;;;;;;;14.31;100.00;101136.63;4997338;28;20390;-88
2021/08/23 05:00:10;;;;;;;8.98;5.25;;;;;;;14.23;100.00;101139.50;4994854;28;20045;-87
2021/08/23 05:02:38;;;;;;;6.40;4.82;;;;;;;14.20;100.00;101136.91;5013133;28;20695;-86
2021/08/23 05:05:05;;;;;;;6.18;4.60;;;;;;;14.20;100.00;101144.88;4981021;28;20056;-87
2021/08/23 05:07:32;;;;;;;7.72;5.45;;;;;;;14.21;100.00;101151.97;4977176;28;20050;-87
2021/08/23 05:09:58;;;;;;;10.00;5.45;;;;;;;14.28;100.00;101148.19;4977020;28;20081;-87
2021/08/23 05:12:25;;;;;;;7.13;4.60;;;;;;;14.31;100.00;101152.56;4980027;28;20049;-87
2021/08/23 05:14:52;;;;;;;6.25;5.00;;;;;;;14.24;100.00;101153.66;4996387;28;20502;-87
2021/08/23 05:17:19;;;;;;;6.10;4.28;;;;;;;14.27;100.00;101162.41;4997798;28;20073;-86
2021/08/23 05:19:45;;;;;;;6.35;4.25;;;;;;;14.34;100.00;101163.09;4963561;28;20054;-86
2021/08/23 05:22:12;;;;;;;9.10;5.43;;;;;;;14.43;100.00;101156.66;4986684;28;20038;-87
2021/08/23 05:24:39;;;;;;;9.10;4.60;;;;;;;14.49;100.00;101159.19;4997183;28;20042;-87
2021/08/23 05:27:06;;;;;;;7.03;5.00;;;;;;;14.55;100.00;101159.88;4997284;28;20441;-86
2021/08/23 05:29:33;;;;;;;7.57;4.28;;;;;;;14.56;100.00;101164.28;4992359;28;20438;-87
2021/08/23 05:32:00;;;;;;;6.53;4.22;;;;;;;14.60;100.00;101167.72;5005022;28;20064;-86
2021/08/23 05:34:26;;;;;;;5.97;4.70;;;;;;;14.57;100.00;101165.16;4985452;28;20450;-86
2021/08/23 05:36:53;;;;;;;7.80;4.47;;;;;;;14.66;100.00;101167.53;4983872;28;20064;-85
2021/08/23 05:39:20;;;;;;;6.97;3.50;;;;;;;14.62;100.00;101169.41;4981726;28;20045;-86
2021/08/23 05:41:46;;;;;;;6.30;4.03;;;;;;;14.61;100.00;101170.31;5002591;28;20037;-86
2021/08/23 05:44:13;;;;;;;6.88;4.35;;;;;;;14.53;100.00;101172.31;5000903;28;20068;-86
2021/08/23 05:46:40;;;;;;;4.82;3.53;;;;;;;14.49;100.00;101176.00;4984861;28;20510;-87
2021/08/23 05:49:07;;;;;;;8.80;4.50;;;;;;;14.56;100.00;101174.91;5001700;28;20620;-86
2021/08/23 05:51:34;;;;;;;5.40;3.88;;;;;;;14.56;100.00;101182.03;5002925;28;20046;-86
2021/08/23 05:54:00;;;;;;;4.45;3.33;;;;;;;14.46;100.00;101184.06;4981372;28;20048;-86
2021/08/23 05:56:27;;;;;;;4.50;3.70;;;;;;;14.55;100.00;101181.16;4984770;28;20041;-86
2021/08/23 05:58:54;;;;;;;4.57;3.65;;;;;;;14.56;100.00;101188.22;5007608;28;20045;-85
2021/08/23 06:01:20;;;;;;;5.25;3.83;;;;;;;14.62;100.00;101189.81;4976652;28;20498;-87
2021/08/23 06:03:47;;;;;;;4.65;3.30;;;;;;;14.59;100.00;101185.47;5016142;28;20034;-86
2021/08/23 06:06:14;;;;;;;5.57;3.35;;;;;;;14.67;100.00;101187.03;4984752;28;20046;-86
2021/08/23 06:08:42;;;;;;;5.13;3.78;;;;;;;14.66;100.00;101195.94;4983441;28;20103;-86
2021/08/23 06:11:08;;;;;;;5.65;3.60;;;;;;;14.72;100.00;101188.66;4999668;28;20057;-85
2021/08/23 06:13:35;;;;;;;4.60;3.53;;;;;;;14.73;100.00;101194.84;4986401;28;20041;-87
2021/08/23 06:16:02;;;;;;;4.97;3.40;;;;;;;14.76;100.00;101200.94;4980678;28;20052;-86
2021/08/23 06:18:29;;;;;;;4.68;3.22;;;;;;;14.83;100.00;101199.84;5000269;28;20042;-87
2021/08/23 06:20:57;;;;;;;4.22;3.55;;;;;;;14.77;100.00;101201.78;4974629;28;20033;-86
2021/08/23 06:23:24;;;;;;;5.85;3.03;;;;;;;14.84;100.00;101203.38;4970096;28;20038;-86
2021/08/23 06:25:51;;;;;;;5.65;3.38;;;;;;;14.86;100.00;101205.06;5014630;28;20498;-87
2021/08/23 06:28:20;;;;;;;5.82;3.42;;;;;;;14.95;100.00;101211.03;4987284;28;20052;-87
2021/08/23 06:30:47;;;;;;;5.47;3.00;;;;;;;15.15;100.00;101203.31;4992100;28;20045;-87
2021/08/23 06:33:13;;;;;;;5.03;2.88;;;;;;;15.62;98.59;101204.50;5011875;28;20092;-86
2021/08/23 06:35:41;;;;;;;4.25;2.40;;;;;;;16.64;89.33;101202.72;4988125;28;20376;-87
2021/08/23 06:38:07;;;;;;;5.03;3.00;;;;;;;18.19;82.55;101200.13;5001660;28;20064;-86
2021/08/23 06:40:34;;;;;;;3.40;2.33;;;;;;;19.40;74.60;101201.66;4978226;28;20108;-85
2021/08/23 06:43:01;;;;;;;3.10;2.50;;;;;;;19.79;70.30;101208.72;4981941;28;20702;-87
2021/08/23 06:45:28;;;;;;;5.10;2.10;;;;;;;20.39;67.51;101211.03;4987456;28;20373;-86
2021/08/23 06:47:54;;;;;;;3.05;1.85;;;;;;;20.58;66.62;101214.50;4981775;28;20038;-86
2021/08/23 06:50:21;;;;;;;3.67;2.33;;;;;;;20.35;66.04;101204.09;4972107;28;20050;-87
2021/08/23 06:52:48;;;;;;;2.75;1.98;;;;;;;19.95;67.96;101222.25;4997226;28;20053;-85
2021/08/23 06:55:15;;;;;;;3.85;2.33;;;;;;;19.90;69.76;101224.28;4970420;28;20049;-85
2021/08/23 06:57:41;;;;;;;3.53;2.22;;;;;;;19.76;70.30;101224.09;4991701;28;20049;-85
2021/08/23 07:00:09;;;;;;;3.53;2.08;;;;;;;20.06;68.51;101219.88;4994171;28;20396;-85
2021/08/23 07:02:36;;;;;;;3.92;2.25;;;;;;;19.80;68.86;101223.88;4987301;28;20104;-85
2021/08/23 07:05:03;;;;;;;4.57;2.53;;;;;;;19.98;69.18;101227.44;4982601;28;20095;-86
2021/08/23 07:07:32;;;;;;;4.00;2.67;;;;;;;19.18;70.86;101232.25;4982660;28;20056;-86
2021/08/23 07:09:59;;;;;;;3.45;2.00;;;;;;;19.11;71.04;101234.34;4998297;28;20073;-87
2021/08/23 07:12:26;;;;;;;3.22;2.03;;;;;;;18.49;70.21;101235.34;4982700;28;20525;-87
2021/08/23 07:14:52;;;;;;;2.92;2.08;;;;;;;18.64;77.03;101244.50;4997391;28;20124;-87
2021/08/23 07:17:19;;;;;;;9.02;2.55;;;;;;;18.77;74.35;101243.94;4996793;28;20056;-89
2021/08/23 07:19:46;;;;;;;5.97;2.47;;;;;;;18.76;74.76;101234.16;4965560;28;20541;-86
2021/08/23 07:22:22;;;;;;;3.08;2.40;;;;;;;18.75;74.66;101247.59;4984158;28;20127;-86
2021/08/23 07:24:49;;;;;;;3.97;2.33;;;;;;;19.05;71.13;101231.94;4977827;28;20388;-86
2021/08/23 07:27:15;;;;;;;2.40;2.15;;;;;;;19.09;71.23;101245.13;4981062;28;20037;-85
2021/08/23 07:29:43;;;;;;;3.05;1.90;;;;;;;18.95;70.17;101244.91;4995675;28;20041;-86
2021/08/23 07:32:10;;;;;;;3.13;2.33;;;;;;;18.99;70.25;101241.13;4997906;28;20049;-85
2021/08/23 07:34:39;;;;;;;2.70;1.90;;;;;;;18.71;70.43;101243.34;4993801;28;20104;-85
2021/08/23 07:37:06;;;;;;;5.40;2.40;;;;;;;18.82;70.66;101249.94;4982147;28;20414;-86
2021/08/23 07:39:33;;;;;;;2.20;1.50;;;;;;;18.93;72.94;101249.47;4977113;28;20060;-86
2021/08/23 07:42:00;;;;;;;2.47;1.70;;;;;;;18.98;70.24;101243.88;4978967;28;20045;-87
2021/08/23 07:44:27;;;;;;;2.40;1.80;;;;;;;19.08;75.41;101240.69;4981687;28;20513;-86
2021/08/23 07:46:53;;;;;;;3.60;1.70;;;;;;;18.97;69.44;101252.84;4983129;28;20050;-86
2021/08/23 07:49:20;;;;;;;2.75;1.67;;;;;;;18.43;71.08;101257.91;4978502;28;21518;-86
2021/08/23 07:51:47;;;;;;;3.42;1.90;;;;;;;18.30;78.17;101272.75;4962771;28;20436;-85
2021/08/23 07:54:16;;;;;;;3.53;1.80;;;;;;;18.10;72.73;101270.91;4980183;28;20044;-85
2021/08/23 07:56:44;;;;;;;3.60;1.90;;;;;;;18.30;75.01;101267.38;4983591;28;20042;-86
2021/08/23 07:59:12;;;;;;;4.28;2.22;;;;;;;18.33;70.74;101269.94;4995237;28;20100;-86
2021/08/23 08:01:38;;;;;;;3.53;2.20;;;;;;;18.63;72.30;101280.25;4979187;28;20443;-87
2021/08/23 08:04:06;;;;;;;3.10;1.58;;;;;;;18.62;74.01;101281.19;4998982;28;20046;-84
2021/08/23 08:06:33;;;;;;;3.75;2.00;;;;;;;18.59;69.91;101281.31;4999862;28;20060;-87
2021/08/23 08:08:59;;;;;;;4.18;1.80;;;;;;;18.67;69.13;101271.19;5015185;28;20052;-87
2021/08/23 08:11:26;;;;;;;2.70;1.50;;;;;;;18.67;67.25;101281.91;4984164;28;20037;-87
2021/08/23 08:13:53;;;;;;;3.33;1.63;;;;;;;18.52;65.97;101278.03;4988232;28;20038;-88
2021/08/23 08:16:20;;;;;;;3.03;1.83;;;;;;;18.28;64.15;101298.69;4998809;28;20033;-86
2021/08/23 08:18:47;;;;;;;2.03;1.50;;;;;;;18.47;66.59;101296.09;5000974;28;20091;-87
2021/08/23 08:21:14;;;;;;;3.83;1.67;;;;;;;18.34;64.31;101292.22;4979663;28;20133;-87
2021/08/23 08:23:40;;;;;;;3.25;1.73;;;;;;;18.27;62.95;101304.97;4983156;28;20471;-87
2021/08/23 08:26:07;;;;;;;2.30;1.70;;;;;;;18.35;70.49;101301.97;4980555;28;20046;-85
2021/08/23 08:28:34;;;;;;;2.63;1.63;;;;;;;18.36;62.55;101298.38;4978517;28;20407;-84
2021/08/23 08:31:01;;;;;;;2.85;1.70;;;;;;;18.48;67.04;101308.53;4980818;28;20103;-84
2021/08/23 08:33:27;;;;;;;2.15;1.42;;;;;;;18.47;64.99;101313.00;5012400;28;20402;-87
2021/08/23 08:35:58;;;;;;;2.95;1.88;;;;;;;18.53;62.74;101303.88;4979715;28;20100;-85
2021/08/23 08:38:25;;;;;;;2.30;1.40;;;;;;;18.67;60.79;101314.00;4981186;28;20050;-85
2021/08/23 08:40:57;;;;;;;2.08;1.30;;;;;;;18.76;61.81;101310.94;4980333;28;20050;-84
2021/08/23 08:43:25;;;;;;;2.08;1.60;;;;;;;18.93;60.25;101310.19;4983881;28;20497;-84
2021/08/23 08:45:52;;;;;;;2.53;1.50;;;;;;;18.90;58.09;101316.53;5003330;28;20080;-83
2021/08/23 08:48:20;;;;;;;2.90;1.63;;;;;;;18.67;58.01;101316.69;5008151;28;20049;-86
2021/08/23 08:50:48;;;;;;;5.47;1.70;;;;;;;18.98;59.90;101316.19;5004987;28;20120;-85
2021/08/23 08:53:15;;;;;;;3.10;1.40;;;;;;;19.20;61.85;101310.72;4983778;28;21376;-87
2021/08/23 08:55:42;;;;;;;2.67;1.70;;;;;;;19.28;60.00;101328.19;4988186;28;20461;-86
2021/08/23 08:58:09;;;;;;;3.20;1.73;;;;;;;19.24;56.10;101320.34;5013621;28;20048;-87
2021/08/23 09:00:38;;;;;;;3.78;1.60;;;;;;;19.37;59.68;101324.22;4999899;28;20052;-86
2021/08/23 09:03:06;;;;;;;2.92;1.73;;;;;;;19.45;56.28;101330.09;4981437;28;20088;-87
2021/08/23 09:05:48;;;;;;;2.83;1.45;;;;;;;19.64;57.07;101338.16;4985766;28;20038;-86
2021/08/23 09:08:15;;;;;;;2.58;1.55;;;;;;;19.50;55.58;101340.56;4981267;28;20042;-87
2021/08/23 09:10:42;;;;;;;2.97;1.70;;;;;;;19.69;57.21;101338.81;4998334;28;20037;-86
2021/08/23 09:13:11;;;;;;;3.80;1.92;;;;;;;19.91;54.42;101344.00;4981349;28;20049;-86
2021/08/23 09:15:54;;;;;;;4.35;1.63;;;;;;;19.95;57.01;101337.56;4999801;28;20111;-87
2021/08/23 09:18:23;;;;;;;2.22;1.30;;;;;;;20.22;57.46;101346.06;5001948;28;20056;-84
2021/08/23 09:21:04;;;;;;;3.05;1.83;;;;;;;20.10;52.42;101335.94;4981411;28;20572;-85
2021/08/23 09:23:37;;;;;;;3.75;1.40;;;;;;;20.23;56.78;101351.34;4980683;28;20053;-84
2021/08/23 09:26:14;;;;;;;4.32;1.52;;;;;;;19.89;51.55;101348.56;4998391;28;20580;-84
2021/08/23 09:28:54;;;;;;;2.33;1.40;;;;;;;20.23;54.16;101345.13;4977093;28;20049;-86
2021/08/23 09:31:29;;;;;;;3.38;1.60;;;;;;;20.49;58.08;101333.97;4979745;28;20050;-86
2021/08/23 09:34:01;;;;;;;3.08;1.55;;;;;;;20.46;54.36;101344.88;4990245;28;20034;-86
2021/08/23 09:36:28;;;;;;;3.15;1.65;;;;;;;20.46;55.44;101341.31;4980821;28;20037;-84
2021/08/23 09:39:12;;;;;;;2.10;1.50;;;;;;;20.77;55.92;101360.28;5008911;28;20124;-84
2021/08/23 09:41:42;;;;;;;3.42;1.63;;;;;;;20.28;52.35;101344.91;4976075;28;20072;-86
2021/08/23 09:44:13;;;;;;;4.68;1.65;;;;;;;20.18;57.21;101353.41;4980353;28;20048;-83
2021/08/23 09:46:41;;;;;;;2.65;1.50;;;;;;;19.92;59.62;101365.38;4989460;28;20046;-85
2021/08/23 09:49:10;;;;;;;2.72;1.70;;;;;;;19.98;55.41;101361.53;4981783;28;20060;-84
2021/08/23 09:51:39;;;;;;;2.65;1.67;;;;;;;20.20;51.14;101356.88;4998611;28;20037;-84
2021/08/23 09:54:10;;;;;;;2.45;1.65;;;;;;;20.48;53.23;101347.47;4980293;28;20056;-83
2021/08/23 09:56:53;;;;;;;3.63;1.75;;;;;;;20.38;50.29;101355.09;4980059;28;20042;-85
2021/08/23 09:59:28;;;;;;;2.83;1.70;;;;;;;20.76;52.88;101350.47;4979307;28;20058;-85
2021/08/23 10:01:56;;;;;;;2.42;1.60;;;;;;;20.83;49.65;101328.66;4995040;28;20490;-84
2021/08/23 10:04:24;;;;;;;3.72;1.92;;;;;;;21.00;50.75;101340.25;4995755;28;20041;-84
2021/08/23 10:06:52;;;;;;;2.95;1.85;;;;;;;21.15;49.73;101346.63;4983234;28;20046;-84
2021/08/23 10:09:21;;;;;;;4.75;1.95;;;;;;;21.38;52.11;101350.81;4982869;28;20060;-85
2021/08/23 10:11:50;;;;;;;4.78;1.80;;;;;;;21.41;50.50;101347.06;4995805;28;20491;-87
2021/08/23 10:14:17;;;;;;;3.33;1.95;;;;;;;20.94;48.18;101355.84;4984743;28;20048;-85
2021/08/23 10:16:44;;;;;;;2.42;1.65;;;;;;;20.91;51.81;101358.69;4993846;28;20045;-82
2021/08/23 10:19:11;;;;;;;2.95;1.70;;;;;;;20.97;48.42;101353.84;5005600;28;20380;-83
2021/08/23 10:21:41;;;;;;;4.47;1.70;;;;;;;21.44;50.15;101352.28;4981084;28;20518;-84
2021/08/23 10:24:10;;;;;;;2.88;1.77;;;;;;;21.83;54.30;101358.13;4994518;28;20041;-85
2021/08/23 10:26:43;;;;;;;4.20;1.95;;;;;;;21.71;48.24;101364.22;4981997;28;20042;-85
2021/08/23 10:29:10;;;;;;;;;;;;;;;21.50;47.09;101349.25;4983092;28;20104;-83
2021/08/23 10:31:41;;;;;;;3.67;1.83;;;;;;;21.27;46.53;101374.69;4981408;28;19927;-83
2021/08/23 10:34:13;;;;;;;2.55;1.70;;;;;;;21.37;48.00;101361.66;4998026;28;20132;-82
2021/08/23 10:36:40;;;;;;;2.35;1.52;;;;;;;21.16;44.29;101343.00;5035562;23;20100;-84
2021/08/23 10:39:08;;;;;;;2.40;1.58;;;;;;;21.13;47.69;101353.91;4997301;28;20053;-84
2021/08/23 10:41:35;;;;;;;4.82;1.65;;;;;;;20.78;51.44;101356.66;5013696;28;20041;-85
2021/08/23 10:44:06;;;;;;;3.00;1.50;;;;;;;21.07;47.14;101356.91;4997176;28;20041;-84
2021/08/23 10:46:38;;;;;;;4.20;1.65;;;;;;;21.21;50.26;101345.44;4997515;28;20049;-85
2021/08/23 10:49:15;;;;;;;2.75;1.48;;;;;;;21.35;48.72;101350.94;4979080;28;20524;-82
2021/08/23 10:51:42;;;;;;;2.30;1.50;;;;;;;21.05;46.95;101353.44;4995644;28;20530;-83
2021/08/23 10:54:23;;;;;;;3.75;2.05;;;;;;;21.35;48.60;101359.00;4988183;28;20041;-83
2021/08/23 10:56:59;;;;;;;3.05;1.83;;;;;;;21.33;48.99;101356.41;5015068;28;20049;-82
2021/08/23 10:59:44;;;;;;;2.72;1.52;;;;;;;21.34;48.81;101358.16;4998367;28;20215;-83
2021/08/23 11:02:12;;;;;;;4.25;1.63;;;;;;;21.27;46.59;101354.09;4996990;28;20054;-84
2021/08/23 11:04:42;;;;;;;1.98;1.48;;;;;;;21.53;46.81;101347.28;4977124;28;20057;-84
2021/08/23 11:07:10;;;;;;;3.05;1.65;;;;;;;21.78;49.83;101354.84;5012525;28;20056;-82
2021/08/23 11:09:42;;;;;;;2.33;1.63;;;;;;;21.77;45.97;101362.97;5011953;28;20096;-82
2021/08/23 11:12:19;;;;;;;3.63;1.88;;;;;;;22.12;50.76;101352.97;4996728;28;20045;-85
2021/08/23 11:14:51;;;;;;;2.83;1.80;;;;;;;22.04;43.21;101350.69;4992166;28;20076;-84
2021/08/23 11:17:30;;;;;;;2.95;1.85;;;;;;;22.32;44.12;101354.50;5006378;28;20524;-84
2021/08/23 11:19:59;;;;;;;5.03;1.90;;;;;;;22.13;42.94;101352.00;5012109;28;20045;-82
2021/08/23 11:22:26;;;;;;;2.80;1.77;;;;;;;22.50;46.88;101358.78;5009182;28;20068;-84
2021/08/23 11:24:54;;;;;;;3.38;1.83;;;;;;;22.62;46.58;101347.31;4993274;28;20499;-85
2021/08/23 11:27:21;;;;;;;2.78;1.73;;;;;;;22.44;43.27;101351.94;5003239;28;20046;-84